Aplicació Alertes

Dades de l'estació automàtica Canyelles

?
?
Resum diari 23:00 TU
Dades diàries de l'estació meteorològica
Temperatura mitjana 9.3 °C
Temperatura màxima 18.4 °C 13:16 TU
Temperatura mínima 3.6 °C 1:09 TU
Humitat relativa mitjana 76%
Precipitació acumulada 0.0 mm
Ratxa màxima del vent (10 m) 20.2 km/h - 2º 9:28 TU
Irradiació solar global 9.8 MJ/m2

El tram horari està expressat en Temps Universal (TU). Cal sumar una hora en horari d'hivern i dues en horari d'estiu per passar a l'hora oficial.

Canyelles

Metadades estació meteorol´gica
Municipi Canyelles
Comarca Garraf
Altitud 148 m
Data alta 16.07.2013
Estat actual Operativa
Dades de període
Període
TU
TM
°C
TX
°C
TN
°C
HRM
%
PPT
mm
VVM (10 m)
km/h
DVM (10 m)
graus
VVX (10 m)
km/h
RS
W/m2
00:00 - 00:30 4.1 4.3 3.8 93 0.0 1.1 169 3.6 0
00:30 - 01:00 4.1 4.5 3.8 92 0.0 1.4 104 4.7 0
01:00 - 01:30 3.8 4.0 3.6 92 0.0 1.8 77 5.0 0
01:30 - 02:00 3.9 4.4 3.7 90 0.0 1.8 124 5.4 0
02:00 - 02:30 4.3 4.7 4.0 88 0.0 1.8 153 5.0 0
02:30 - 03:00 6.2 6.8 4.8 80 0.0 1.8 191 6.5 0
03:00 - 03:30 5.5 6.3 5.0 82 0.0 2.5 178 4.7 0
03:30 - 04:00 4.7 5.0 4.3 86 0.0 1.1 182 5.4 0
04:00 - 04:30 4.6 5.0 4.3 88 0.0 1.1 181 3.2 0
04:30 - 05:00 4.2 4.8 3.9 89 0.0 0.7 101 4.3 0
05:00 - 05:30 4.5 5.9 3.9 90 0.0 2.2 38 9.0 0
05:30 - 06:00 6.3 6.6 6.0 83 0.0 3.2 341 11.2 0
06:00 - 06:30 6.2 6.9 5.7 83 0.0 3.6 326 8.3 0
06:30 - 07:00 7.1 7.3 6.9 81 0.0 3.2 349 10.4 6
07:00 - 07:30 7.9 8.3 7.3 76 0.0 1.8 104 7.2 60
07:30 - 08:00 8.8 9.0 8.1 74 0.0 4.3 352 12.6 101
08:00 - 08:30 9.2 9.5 8.9 72 0.0 8.3 347 17.6 146
08:30 - 09:00 10.2 10.8 9.5 69 0.0 6.1 348 14.4 233
09:00 - 09:30 11.4 11.6 10.9 64 0.0 8.6 358 20.2 337
09:30 - 10:00 12.1 13.0 11.6 62 0.0 9.0 4 19.4 392
10:00 - 10:30 13.2 13.6 12.9 59 0.0 7.2 346 14.0 427
10:30 - 11:00 14.0 14.3 13.6 57 0.0 9.0 20 15.1 462
11:00 - 11:30 15.4 16.3 14.4 53 0.0 5.4 14 14.8 480
11:30 - 12:00 16.5 17.2 15.9 50 0.0 4.7 346 10.1 481
12:00 - 12:30 17.1 17.4 16.8 48 0.0 4.7 350 11.2 470
12:30 - 13:00 17.7 18.1 17.4 47 0.0 4.7 355 10.4 443
13:00 - 13:30 17.9 18.4 17.5 47 0.0 4.7 85 13.3 399
13:30 - 14:00 17.6 17.7 17.3 51 0.0 5.4 170 11.5 346
14:00 - 14:30 16.9 17.2 16.8 53 0.0 5.8 177 14.0 283
14:30 - 15:00 16.6 17.1 16.2 55 0.0 5.4 173 13.0 220
15:00 - 15:30 16.2 16.5 15.7 58 0.0 4.0 175 8.6 147
15:30 - 16:00 15.1 15.7 14.3 62 0.0 5.0 202 9.0 64
16:00 - 16:30 13.1 14.2 12.0 70 0.0 4.0 259 6.1 8
16:30 - 17:00 11.3 12.0 10.6 78 0.0 1.4 274 4.0 0
17:00 - 17:30 9.9 10.5 9.1 82 0.0 1.4 256 4.0 0
17:30 - 18:00 8.7 9.0 8.3 87 0.0 0.0 80 2.5 0
18:00 - 18:30 8.1 8.4 7.7 88 0.0 1.1 189 3.2 0
18:30 - 19:00 7.5 7.8 7.2 90 0.0 0.7 210 2.5 0
19:00 - 19:30 7.0 7.3 6.8 91 0.0 1.4 175 6.5 0
19:30 - 20:00 6.6 6.8 6.2 92 0.0 1.1 226 5.0 0
20:00 - 20:30 6.0 6.1 5.7 92 0.0 1.1 163 4.7 0
20:30 - 21:00 6.0 6.3 5.8 91 0.0 1.4 100 4.0 0
21:00 - 21:30 6.1 6.1 5.9 88 0.0 2.2 110 4.7 0
21:30 - 22:00 6.0 6.2 5.7 85 0.0 2.2 95 6.1 0
22:00 - 22:30 5.6 5.8 5.2 87 0.0 1.4 66 4.3 0
22:30 - 23:00 5.4 5.7 5.2 88 0.0 1.1 148 3.2 0
23:00 - 23:30 5.3 5.6 5.1 87 0.0 1.8 138 5.4 0

Les dades en taronja només han passat un control de qualitat automàtic. Resta pendent la seva validació definitiva.